Time;durP1;ratioP1;P1;durP2;ratioP2;P2;SDS_P1;SDS_P2;PMS_P1;PMS_P2;Temp;Humidity;BMP_temperature;BMP_pressure;BME280_temperature;BME280_humidity;BME280_pressure;Samples;Min_cycle;Max_cycle;Signal;HPM_P1;HPM_P2
2023/03/11 00:01:10;;;;;;;10.82;2.00;;;1.20;99.90;;;;;;5048002;28;20037;-90
2023/03/11 00:03:36;;;;;;;6.18;2.00;;;1.20;99.90;;;;;;5032390;28;20044;-91
2023/03/11 00:06:02;;;;;;;6.78;1.65;;;1.20;99.90;;;;;;5049476;28;20036;-88
2023/03/11 00:08:27;;;;;;;7.65;1.90;;;1.20;99.90;;;;;;5048231;28;20051;-90
2023/03/11 00:10:55;;;;;;;9.15;2.00;;;0.50;99.90;;;;;;5046236;28;20040;-91
2023/03/11 00:13:21;;;;;;;11.35;2.00;;;1.20;99.90;;;;;;5065981;28;20539;-90
2023/03/11 00:15:49;;;;;;;8.85;2.00;;;3.20;99.90;;;;;;5065452;28;20032;-91
2023/03/11 00:18:15;;;;;;;10.00;2.00;;;1.20;99.90;;;;;;5064348;28;20094;-91
2023/03/11 00:20:44;;;;;;;8.98;1.88;;;1.20;99.90;;;;;;5047911;28;20050;-90
2023/03/11 00:23:11;;;;;;;11.13;1.80;;;2.00;99.90;;;;;;5065732;28;20036;-90
2023/03/11 00:25:38;;;;;;;8.43;1.70;;;;;;;;;;5064834;28;20040;-90
2023/03/11 00:28:06;;;;;;;10.27;1.90;;;1.20;99.90;;;;;;5064196;28;20485;-90
2023/03/11 00:30:32;;;;;;;4.72;1.63;;;1.20;99.90;;;;;;5027442;28;20045;-90
2023/03/11 00:32:58;;;;;;;5.65;1.60;;;1.20;99.90;;;;;;5046495;28;20493;-89
2023/03/11 00:35:28;;;;;;;10.38;2.10;;;1.20;99.90;;;;;;5063991;28;20090;-90
2023/03/11 00:37:57;;;;;;;7.60;1.60;;;1.20;99.90;;;;;;5064026;28;20480;-91
2023/03/11 00:40:25;;;;;;;9.13;1.65;;;1.20;99.90;;;;;;5056209;28;20058;-90
2023/03/11 00:42:51;;;;;;;5.50;1.60;;;1.20;99.90;;;;;;5064010;28;20101;-90
2023/03/11 00:45:20;;;;;;;4.43;1.48;;;1.10;99.90;;;;;;5065115;28;20040;-91
2023/03/11 00:47:46;;;;;;;7.53;1.70;;;1.10;99.90;;;;;;5048849;28;20106;-90
2023/03/11 00:50:18;;;;;;;8.02;1.90;;;1.10;99.90;;;;;;5046501;28;20533;-90
2023/03/11 00:52:46;;;;;;;6.22;1.60;;;1.00;99.90;;;;;;5064216;28;20040;-91
2023/03/11 00:55:14;;;;;;;5.30;1.60;;;1.00;99.90;;;;;;5061675;28;20044;-91
2023/03/11 00:57:40;;;;;;;10.40;1.80;;;1.00;99.90;;;;;;5064795;28;20076;-90
2023/03/11 01:00:10;;;;;;;9.38;1.90;;;1.00;99.90;;;;;;5046892;28;20119;-90
2023/03/11 01:02:37;;;;;;;6.35;1.70;;;0.90;99.90;;;;;;5046148;28;20393;-90
2023/03/11 01:05:04;;;;;;;9.65;1.50;;;0.90;99.90;;;;;;5013360;28;20088;-91
2023/03/11 01:07:30;;;;;;;7.93;1.60;;;0.90;99.90;;;;;;5047618;28;20048;-89
2023/03/11 01:09:56;;;;;;;6.15;1.50;;;0.90;99.90;;;;;;5061437;28;20493;-90
2023/03/11 01:12:22;;;;;;;6.53;1.50;;;0.90;99.90;;;;;;5044820;28;20123;-90
2023/03/11 01:14:47;;;;;;;8.35;1.77;;;0.90;99.90;;;;;;5048053;28;20182;-90
2023/03/11 01:17:13;;;;;;;9.13;1.70;;;0.90;99.90;;;;;;5047240;28;20352;-90
2023/03/11 01:19:39;;;;;;;6.80;1.70;;;0.60;99.90;;;;;;5061859;28;20152;-91
2023/03/11 01:22:05;;;;;;;10.05;1.80;;;0.90;99.90;;;;;;5058986;28;20045;-90
2023/03/11 01:24:31;;;;;;;8.50;1.67;;;;;;;;;;5045421;28;20112;-89
2023/03/11 01:26:56;;;;;;;6.47;1.75;;;1.00;99.90;;;;;;5047794;28;20121;-91
2023/03/11 01:29:22;;;;;;;5.88;1.52;;;1.00;99.90;;;;;;5031353;28;20482;-91
2023/03/11 01:31:48;;;;;;;3.92;1.30;;;1.00;99.90;;;;;;5046347;28;20039;-90
2023/03/11 01:34:14;;;;;;;5.45;1.40;;;1.00;99.90;;;;;;5040597;28;20099;-91
2023/03/11 01:36:39;;;;;;;6.05;1.80;;;1.10;99.90;;;;;;5046688;28;20067;-90
2023/03/11 01:39:05;;;;;;;7.28;1.58;;;1.00;99.90;;;;;;5046126;28;20040;-91
2023/03/11 01:41:31;;;;;;;7.45;1.50;;;;;;;;;;5013750;28;20556;-91
2023/03/11 01:43:57;;;;;;;5.47;1.52;;;;;;;;;;5064826;28;20076;-91
2023/03/11 01:46:30;;;;;;;8.00;1.40;;;1.20;99.90;;;;;;5063574;28;20478;-90
2023/03/11 01:48:58;;;;;;;7.45;1.55;;;1.10;99.90;;;;;;5065309;28;20040;-91
2023/03/11 01:51:44;;;;;;;8.30;1.50;;;1.40;99.90;;;;;;5051407;28;20032;-91
2023/03/11 01:54:27;;;;;;;5.40;1.40;;;0.50;99.90;;;;;;5067227;28;20042;-90
2023/03/11 01:56:54;;;;;;;6.10;1.33;;;;;;;;;;5050687;28;20046;-92
2023/03/11 01:59:28;;;;;;;5.68;1.52;;;0.90;99.90;;;;;;5050421;28;20174;-91
2023/03/11 02:02:06;;;;;;;4.20;1.50;;;0.90;99.90;;;;;;5047359;28;20042;-91
2023/03/11 02:04:34;;;;;;;6.25;1.95;;;0.90;99.90;;;;;;5067003;28;20102;-91
2023/03/11 02:07:01;;;;;;;4.47;1.40;;;0.50;99.90;;;;;;5065506;28;20075;-92
2023/03/11 02:09:27;;;;;;;7.70;1.95;;;0.70;99.90;;;;;;5034359;28;20040;-90
2023/03/11 02:11:54;;;;;;;5.13;1.20;;;0.70;99.90;;;;;;5049740;28;20485;-89
2023/03/11 02:14:24;;;;;;;6.25;1.40;;;;;;;;;;5045446;28;20401;-91
2023/03/11 02:16:49;;;;;;;6.95;1.40;;;0.80;99.90;;;;;;5066329;28;20040;-91
2023/03/11 02:19:37;;;;;;;6.93;1.42;;;0.80;99.90;;;;;;5052294;28;20041;-91
2023/03/11 02:22:04;;;;;;;3.88;1.30;;;;;;;;;;5067396;28;20047;-89
2023/03/11 02:24:48;;;;;;;4.65;1.48;;;0.90;99.90;;;;;;5050731;28;20524;-91
2023/03/11 02:27:17;;;;;;;3.85;1.30;;;0.90;99.90;;;;;;5062518;28;20489;-91
2023/03/11 02:29:46;;;;;;;4.07;1.52;;;0.90;99.90;;;;;;5049518;28;20028;-90
2023/03/11 02:32:13;;;;;;;5.18;1.50;;;0.90;99.90;;;;;;5050165;28;20488;-91
2023/03/11 02:34:42;;;;;;;6.00;1.38;;;0.90;99.90;;;;;;5050539;28;20334;-91
2023/03/11 02:37:11;;;;;;;3.15;1.30;;;1.00;99.90;;;;;;5033058;28;20250;-90
2023/03/11 02:39:46;;;;;;;5.57;1.70;;;0.90;99.90;;;;;;5064890;28;20044;-91
2023/03/11 02:42:14;;;;;;;3.30;1.40;;;0.80;99.90;;;;;;5066928;28;20246;-90
2023/03/11 02:44:43;;;;;;;5.18;1.30;;;0.80;99.90;;;;;;5057106;28;20037;-91
2023/03/11 02:47:09;;;;;;;4.90;1.30;;;0.80;99.90;;;;;;5065544;28;20037;-91
2023/03/11 02:49:38;;;;;;;6.15;1.38;;;0.80;99.90;;;;;;5066907;28;20202;-91
2023/03/11 02:52:04;;;;;;;4.63;1.30;;;2.20;99.90;;;;;;5064602;28;20037;-91
2023/03/11 02:54:30;;;;;;;4.18;1.50;;;;;;;;;;5050054;28;20502;-91
2023/03/11 02:56:56;;;;;;;8.32;1.50;;;0.70;99.90;;;;;;5049950;28;20048;-90
2023/03/11 02:59:22;;;;;;;4.68;1.45;;;0.70;99.90;;;;;;5051320;28;20047;-91
2023/03/11 03:01:48;;;;;;;8.60;1.63;;;0.60;99.90;;;;;;5053791;28;20398;-91
2023/03/11 03:04:16;;;;;;;6.93;1.50;;;0.50;99.90;;;;;;5027039;28;20166;-91
2023/03/11 03:06:42;;;;;;;7.07;1.60;;;0.40;99.90;;;;;;5069335;28;20523;-91
2023/03/11 03:09:08;;;;;;;3.78;1.42;;;0.30;99.90;;;;;;5069217;28;20079;-90
2023/03/11 03:11:34;;;;;;;7.85;1.92;;;0.30;99.90;;;;;;5053428;28;20066;-91
2023/03/11 03:14:03;;;;;;;9.25;1.70;;;0.20;99.90;;;;;;5035694;28;20175;-90
2023/03/11 03:16:28;;;;;;;6.45;1.60;;;0.20;99.90;;;;;;5068955;28;20048;-90
2023/03/11 03:18:54;;;;;;;3.28;1.30;;;0.10;99.90;;;;;;5052274;28;20035;-91
2023/03/11 03:21:20;;;;;;;4.90;1.50;;;;;;;;;;5070069;28;20548;-90
2023/03/11 03:23:46;;;;;;;6.80;1.40;;;0.10;99.90;;;;;;5062711;28;20033;-90
2023/03/11 03:26:13;;;;;;;4.25;1.60;;;-0.10;99.90;;;;;;5028167;28;20043;-91
2023/03/11 03:28:38;;;;;;;7.20;1.60;;;-0.10;99.90;;;;;;5052380;28;20036;-91
2023/03/11 03:31:06;;;;;;;8.52;1.60;;;-0.10;99.90;;;;;;5049314;28;20048;-91
2023/03/11 03:33:33;;;;;;;7.57;1.67;;;0.50;99.90;;;;;;5052519;28;20591;-91
2023/03/11 03:35:59;;;;;;;5.88;1.55;;;;;;;;;;5071583;28;20051;-90
2023/03/11 03:38:24;;;;;;;4.97;1.40;;;-0.10;99.90;;;;;;5074682;28;20060;-91
2023/03/11 03:40:53;;;;;;;4.95;1.40;;;-0.10;99.90;;;;;;5054804;28;20123;-91
2023/03/11 03:43:19;;;;;;;5.45;1.42;;;-0.20;99.90;;;;;;5052965;28;20091;-92
2023/03/11 03:45:45;;;;;;;5.60;1.60;;;-0.20;99.90;;;;;;5051965;28;20076;-90
2023/03/11 03:48:11;;;;;;;6.18;1.42;;;-0.20;99.90;;;;;;5033135;28;20084;-91
2023/03/11 03:50:39;;;;;;;6.55;1.60;;;-0.30;99.90;;;;;;5068240;28;20092;-91
2023/03/11 03:53:05;;;;;;;5.45;1.52;;;-2.00;99.90;;;;;;5062621;28;20055;-90
2023/03/11 03:55:31;;;;;;;7.68;1.52;;;;;;;;;;5068697;28;20048;-91
2023/03/11 03:57:57;;;;;;;7.30;1.48;;;-0.40;99.90;;;;;;5067897;28;20046;-91
2023/03/11 04:00:23;;;;;;;5.70;1.48;;;;;;;;;;5033241;28;20167;-90
2023/03/11 04:02:49;;;;;;;6.88;1.48;;;-0.40;99.90;;;;;;5067948;28;20047;-91
2023/03/11 04:05:15;;;;;;;5.78;1.50;;;-0.50;99.90;;;;;;5053002;28;20040;-90
2023/03/11 04:07:49;;;;;;;6.05;1.80;;;-0.50;99.90;;;;;;5051487;28;20040;-91
2023/03/11 04:10:22;;;;;;;8.80;1.60;;;;;;;;;;5052586;28;20040;-90
2023/03/11 04:12:47;;;;;;;7.82;1.98;;;-0.50;99.90;;;;;;5067885;28;20041;-91
2023/03/11 04:15:16;;;;;;;6.22;1.63;;;-0.60;99.90;;;;;;5056124;28;20047;-91
2023/03/11 04:17:41;;;;;;;7.57;1.45;;;-0.60;99.90;;;;;;5039350;28;20043;-91
2023/03/11 04:20:11;;;;;;;7.93;1.65;;;-0.70;99.90;;;;;;5053643;28;20044;-91
2023/03/11 04:22:40;;;;;;;6.38;1.75;;;-0.70;99.90;;;;;;5034513;28;20044;-91
2023/03/11 04:25:13;;;;;;;6.72;1.63;;;-0.70;99.90;;;;;;5069564;28;20060;-90
2023/03/11 04:27:44;;;;;;;6.88;1.60;;;;;;;;;;5067904;28;20068;-90
2023/03/11 04:30:11;;;;;;;6.68;1.90;;;-0.70;99.90;;;;;;5057580;28;20116;-90
2023/03/11 04:32:45;;;;;;;7.20;1.60;;;-0.80;99.90;;;;;;5047864;28;20044;-91
2023/03/11 04:35:14;;;;;;;5.70;1.55;;;-0.70;99.90;;;;;;5049476;28;20445;-90
2023/03/11 04:37:43;;;;;;;7.75;1.98;;;;;;;;;;5061298;28;20037;-91
2023/03/11 04:40:14;;;;;;;7.43;1.60;;;-0.80;99.90;;;;;;5051333;28;20037;-90
2023/03/11 04:42:41;;;;;;;6.78;1.98;;;;;;;;;;5050963;28;20036;-90
2023/03/11 04:45:17;;;;;;;6.40;1.63;;;;;;;;;;5048004;28;20619;-89
2023/03/11 04:47:46;;;;;;;5.30;1.55;;;-0.90;99.90;;;;;;5067196;28;20571;-90
2023/03/11 04:50:17;;;;;;;5.53;1.83;;;;;;;;;;5050393;28;20123;-91
2023/03/11 04:52:46;;;;;;;6.72;1.98;;;-0.90;99.90;;;;;;5045566;28;20097;-90
2023/03/11 04:55:15;;;;;;;6.55;1.80;;;-0.90;99.90;;;;;;5067323;28;20088;-91
2023/03/11 04:57:42;;;;;;;7.47;1.95;;;-0.90;99.90;;;;;;5039596;28;20043;-91
2023/03/11 05:00:14;;;;;;;5.78;1.73;;;;;;;;;;5050066;28;20071;-92
2023/03/11 05:02:41;;;;;;;7.20;1.77;;;;;;;;;;5067098;28;20493;-92
2023/03/11 05:05:11;;;;;;;8.73;1.90;;;-1.00;99.90;;;;;;5067961;28;20294;-91
2023/03/11 05:07:42;;;;;;;6.82;2.00;;;-1.00;99.90;;;;;;5049998;28;20040;-91
2023/03/11 05:10:11;;;;;;;8.23;1.80;;;-1.00;99.90;;;;;;5051624;28;20136;-91
2023/03/11 05:12:37;;;;;;;5.45;1.65;;;-0.10;99.90;;;;;;5057024;28;20041;-90
2023/03/11 05:15:04;;;;;;;5.88;1.73;;;;;;;;;;5066419;28;20040;-91
2023/03/11 05:17:33;;;;;;;10.98;1.95;;;-1.00;99.90;;;;;;5068567;28;20441;-90
2023/03/11 05:20:07;;;;;;;8.10;1.63;;;-1.00;99.90;;;;;;5069447;28;20040;-91
2023/03/11 05:22:36;;;;;;;8.38;1.83;;;-1.00;99.90;;;;;;5057232;28;20032;-91
2023/03/11 05:25:11;;;;;;;6.30;1.63;;;-1.00;99.90;;;;;;5050167;28;20779;-92
2023/03/11 05:27:40;;;;;;;6.93;1.83;;;;;;;;;;5066081;28;20031;-91
2023/03/11 05:30:07;;;;;;;7.50;2.25;;;;;;;;;;5067553;28;20081;-92
2023/03/11 05:32:52;;;;;;;11.57;3.90;;;-1.00;99.90;;;;;;5069162;28;20265;-92
2023/03/11 05:35:21;;;;;;;13.77;6.30;;;;;;;;;;5063019;28;20052;-91
2023/03/11 05:38:00;;;;;;;;;;;;;;;;;;;;;
2023/03/11 05:40:32;;;;;;;13.90;7.25;;;-1.10;99.90;;;;;;5052754;28;20048;-90
2023/03/11 05:43:03;;;;;;;13.02;6.50;;;;;;;;;;5045866;28;20041;-91
2023/03/11 05:45:32;;;;;;;10.77;4.78;;;-1.10;99.90;;;;;;5040762;28;20590;-92
2023/03/11 05:48:04;;;;;;;10.93;3.60;;;;;;;;;;5033682;28;20040;-91
2023/03/11 05:50:35;;;;;;;11.52;4.00;;;;;;;;;;5066985;28;20037;-91
2023/03/11 05:53:07;;;;;;;9.70;4.32;;;;;;;;;;5051246;28;20132;-91
2023/03/11 05:55:33;;;;;;;13.18;5.47;;;-1.20;99.90;;;;;;5047919;28;20040;-92
2023/03/11 05:58:02;;;;;;;13.57;7.07;;;;;;;;;;5047801;28;20037;-91
2023/03/11 06:00:34;;;;;;;13.77;7.72;;;;;;;;;;5048059;28;20719;-91
2023/03/11 06:03:07;;;;;;;15.30;8.32;;;;;;;;;;5050713;28;20048;-91
2023/03/11 06:05:54;;;;;;;12.53;6.97;;;-1.20;99.90;;;;;;5067363;28;20037;-92
2023/03/11 06:08:33;;;;;;;12.38;6.20;;;-1.20;99.90;;;;;;5064600;28;20288;-90
2023/03/11 06:11:11;;;;;;;18.85;8.30;;;-1.20;99.90;;;;;;5051127;28;20036;-92
2023/03/11 06:13:53;;;;;;;;;;;;;;;;;;;;;
2023/03/11 06:16:24;;;;;;;8.85;2.45;;;-1.20;99.90;;;;;;5061255;28;20050;-91
2023/03/11 06:18:53;;;;;;;7.43;2.10;;;;;;;;;;5051291;28;20127;-91
2023/03/11 06:21:25;;;;;;;7.97;2.15;;;;;;;;;;5068452;28;20064;-92
2023/03/11 06:23:55;;;;;;;7.10;2.30;;;;;;;;;;5068412;28;20036;-92
2023/03/11 06:26:26;;;;;;;10.23;2.30;;;-1.20;99.90;;;;;;5067672;28;20290;-92
2023/03/11 06:28:58;;;;;;;9.30;2.67;;;-1.20;99.90;;;;;;5049963;28;20041;-90
2023/03/11 06:31:28;;;;;;;11.00;3.47;;;-1.10;99.90;;;;;;5047948;28;20477;-91
2023/03/11 06:34:04;;;;;;;9.75;4.18;;;;;;;;;;5068372;28;20047;-91
2023/03/11 06:36:40;;;;;;;;;;;;;;;;;;;;;
2023/03/11 06:39:25;;;;;;;13.65;3.60;;;-1.00;99.90;;;;;;5069912;28;20048;-91
2023/03/11 06:41:56;;;;;;;10.25;2.75;;;;;;;;;;5036496;28;20517;-92
2023/03/11 06:44:28;;;;;;;7.68;2.00;;;-0.90;99.90;;;;;;5052916;28;20039;-92
2023/03/11 06:47:23;;;;;;;9.13;2.00;;;;;;;;;;5053509;28;20040;-91
2023/03/11 06:50:22;;;;;;;5.97;1.80;;;-0.80;99.90;;;;;;5073103;28;20040;-92
2023/03/11 06:52:57;;;;;;;6.18;1.95;;;;;;;;;;5054358;28;20044;-92
2023/03/11 06:55:56;;;;;;;5.68;1.77;;;-0.60;99.90;;;;;;5070329;28;20539;-91
2023/03/11 06:58:47;;;;;;;6.53;1.85;;;-0.60;99.90;;;;;;5068887;28;20048;-91
2023/03/11 07:01:28;;;;;;;10.23;2.50;;;;;;;;;;5071612;28;20111;-92
2023/03/11 07:04:25;;;;;;;7.32;1.73;;;-0.40;99.90;;;;;;5074215;28;20450;-92
2023/03/11 07:07:13;;;;;;;6.72;1.92;;;-0.40;99.90;;;;;;4995299;28;20063;-91
2023/03/11 07:10:43;;;;;;;8.23;2.10;;;-0.20;99.90;;;;;;4983618;28;20042;-93
2023/03/11 07:13:32;;;;;;;5.35;1.70;;;-0.10;99.90;;;;;;5004811;28;20625;-92
2023/03/11 07:16:38;;;;;;;8.90;2.10;;;-0.10;99.90;;;;;;5012441;28;20107;-91
2023/03/11 07:19:25;;;;;;;5.75;1.70;;;0.00;99.90;;;;;;5016562;28;20036;-91
2023/03/11 07:22:00;;;;;;;10.63;2.13;;;0.10;99.90;;;;;;5010163;28;20100;-92
2023/03/11 07:24:26;;;;;;;8.32;2.03;;;;;;;;;;5029718;28;20053;-91
2023/03/11 07:27:19;;;;;;;9.05;1.90;;;0.20;99.90;;;;;;5014697;28;20060;-90
2023/03/11 07:29:51;;;;;;;7.25;2.10;;;0.30;99.90;;;;;;5025322;28;20089;-91
2023/03/11 07:32:19;;;;;;;7.82;2.00;;;0.40;99.90;;;;;;5021997;28;20053;-90
2023/03/11 07:34:45;;;;;;;7.82;2.05;;;;;;;;;;5021440;28;20738;-90
2023/03/11 07:37:16;;;;;;;7.45;2.00;;;0.50;99.90;;;;;;5018718;28;20136;-91
2023/03/11 07:39:54;;;;;;;9.23;1.98;;;0.70;99.90;;;;;;5056176;28;20056;-91
2023/03/11 07:42:23;;;;;;;8.30;1.80;;;0.70;99.90;;;;;;5026627;28;20037;-90
2023/03/11 07:44:57;;;;;;;8.07;1.90;;;0.70;99.90;;;;;;5046966;28;20075;-90
2023/03/11 07:47:26;;;;;;;7.35;1.80;;;0.80;99.90;;;;;;5065506;28;20033;-90
2023/03/11 07:49:55;;;;;;;11.18;2.10;;;;;;;;;;5049445;28;20098;-91
2023/03/11 07:52:23;;;;;;;6.20;1.77;;;1.00;99.90;;;;;;5061576;28;20075;-90
2023/03/11 07:54:49;;;;;;;9.52;2.13;;;;;;;;;;5048233;28;20036;-90
2023/03/11 07:57:16;;;;;;;8.70;1.67;;;1.10;99.90;;;;;;5063992;28;20059;-89
2023/03/11 07:59:42;;;;;;;6.68;1.80;;;1.20;99.90;;;;;;5064920;28;20080;-89
2023/03/11 08:02:09;;;;;;;9.85;1.88;;;1.20;99.90;;;;;;5029890;28;20068;-89
2023/03/11 08:04:35;;;;;;;12.73;2.80;;;1.40;99.90;;;;;;5024970;28;20504;-89
2023/03/11 08:07:01;;;;;;;7.07;1.65;;;1.40;99.90;;;;;;5048867;28;20079;-88
2023/03/11 08:09:29;;;;;;;6.07;1.70;;;1.50;99.90;;;;;;5046374;28;20036;-88
2023/03/11 08:11:55;;;;;;;9.52;2.08;;;1.60;99.90;;;;;;5048956;28;20044;-88
2023/03/11 08:14:21;;;;;;;8.10;1.80;;;;;;;;;;5030460;28;20509;-89
2023/03/11 08:16:47;;;;;;;8.70;1.85;;;;;;;;;;5064428;28;20393;-89
2023/03/11 08:19:13;;;;;;;11.57;1.95;;;1.80;99.90;;;;;;5042820;28;20056;-89
2023/03/11 08:21:39;;;;;;;6.38;1.90;;;1.90;99.90;;;;;;5028510;28;20044;-89
2023/03/11 08:24:06;;;;;;;8.90;1.95;;;1.90;99.90;;;;;;5046785;28;20036;-88
2023/03/11 08:26:31;;;;;;;6.60;2.00;;;0.00;99.90;;;;;;5063692;28;20611;-88
2023/03/11 08:28:58;;;;;;;6.95;1.80;;;2.00;99.90;;;;;;5058001;28;20040;-87
2023/03/11 08:31:27;;;;;;;6.68;1.88;;;2.10;99.90;;;;;;5063372;28;20159;-88
2023/03/11 08:33:56;;;;;;;8.95;1.77;;;2.10;99.90;;;;;;5060954;28;20133;-87
2023/03/11 08:36:21;;;;;;;8.15;1.90;;;2.10;99.90;;;;;;5056539;28;20040;-87
2023/03/11 08:38:47;;;;;;;9.52;1.90;;;4.00;99.90;;;;;;5044100;28;20143;-87
2023/03/11 08:41:14;;;;;;;6.03;1.80;;;2.40;99.90;;;;;;5029222;28;20079;-87
2023/03/11 08:43:41;;;;;;;6.78;1.80;;;4.40;99.90;;;;;;5060365;28;20403;-86
2023/03/11 08:46:07;;;;;;;7.25;1.73;;;2.50;99.90;;;;;;5063109;28;20051;-89
2023/03/11 08:48:33;;;;;;;9.00;2.00;;;2.60;99.90;;;;;;5047927;28;20048;-87
2023/03/11 08:50:59;;;;;;;10.27;1.80;;;2.60;99.90;;;;;;5046948;28;20512;-88
2023/03/11 08:53:24;;;;;;;5.45;1.67;;;2.70;99.90;;;;;;5063135;28;20593;-87
2023/03/11 08:55:51;;;;;;;7.47;1.90;;;3.30;99.90;;;;;;5044198;28;20127;-86
2023/03/11 08:58:18;;;;;;;10.02;2.00;;;4.70;99.90;;;;;;5063946;28;20043;-87
2023/03/11 09:00:45;;;;;;;8.60;1.98;;;3.80;99.90;;;;;;5061477;28;20040;-87
2023/03/11 09:03:12;;;;;;;8.60;2.00;;;2.90;99.90;;;;;;5046987;28;20036;-86
2023/03/11 09:05:38;;;;;;;7.95;1.98;;;3.00;99.90;;;;;;5045031;28;20074;-87
2023/03/11 09:08:04;;;;;;;9.82;2.20;;;3.10;99.90;;;;;;5062800;28;20090;-86
2023/03/11 09:10:30;;;;;;;12.35;2.67;;;3.10;99.90;;;;;;5027718;28;20040;-88
2023/03/11 09:12:56;;;;;;;8.55;1.80;;;3.20;99.90;;;;;;5045003;28;20059;-89
2023/03/11 09:15:21;;;;;;;9.82;2.30;;;3.30;99.90;;;;;;5046494;28;20062;-88
2023/03/11 09:17:47;;;;;;;12.10;2.58;;;2.70;99.90;;;;;;5028681;28;20040;-89
2023/03/11 09:20:14;;;;;;;6.82;2.17;;;3.40;99.90;;;;;;5045189;28;20282;-89
2023/03/11 09:22:40;;;;;;;7.22;1.80;;;3.50;99.90;;;;;;5043963;28;20034;-88
2023/03/11 09:25:07;;;;;;;8.90;1.92;;;3.60;99.90;;;;;;5046985;28;20468;-87
2023/03/11 09:27:32;;;;;;;6.93;2.10;;;3.60;99.90;;;;;;5047965;28;20032;-88
2023/03/11 09:29:58;;;;;;;6.80;1.80;;;;;;;;;;5029167;28;20098;-89
2023/03/11 09:32:24;;;;;;;7.10;1.90;;;3.80;99.90;;;;;;5044257;28;20063;-88
2023/03/11 09:34:50;;;;;;;7.93;1.90;;;3.80;99.90;;;;;;5046354;28;20044;-88
2023/03/11 09:37:15;;;;;;;9.48;1.90;;;5.40;99.90;;;;;;5029130;28;20097;-88
2023/03/11 09:39:41;;;;;;;7.72;2.10;;;3.80;99.90;;;;;;5029337;28;20052;-89
2023/03/11 09:42:35;;;;;;;8.00;1.90;;;4.10;99.90;;;;;;5046753;28;20047;-87
2023/03/11 09:45:27;;;;;;;9.88;2.17;;;4.00;99.90;;;;;;5059876;28;20044;-88
2023/03/11 09:48:02;;;;;;;9.35;1.92;;;3.90;99.90;;;;;;5059553;28;20037;-89
2023/03/11 09:50:33;;;;;;;9.27;2.20;;;4.20;99.90;;;;;;5059981;28;20040;-89
2023/03/11 09:53:25;;;;;;;7.25;2.00;;;4.30;99.90;;;;;;5058359;28;20524;-90
2023/03/11 09:55:57;;;;;;;8.32;2.05;;;5.40;99.90;;;;;;5062875;28;20044;-89
2023/03/11 09:58:36;;;;;;;9.43;2.15;;;4.40;99.90;;;;;;5061975;28;20162;-89
2023/03/11 10:01:27;;;;;;;8.45;2.25;;;6.10;99.90;;;;;;5060539;28;20040;-89
2023/03/11 10:04:03;;;;;;;8.18;1.83;;;4.50;99.90;;;;;;5060095;28;20109;-89
2023/03/11 10:06:29;;;;;;;8.40;1.80;;;4.60;99.90;;;;;;5040020;28;20044;-87
2023/03/11 10:09:17;;;;;;;7.53;1.90;;;4.60;99.90;;;;;;5048448;28;20037;-89
2023/03/11 10:11:48;;;;;;;7.35;2.00;;;4.70;99.90;;;;;;5055570;28;20708;-89
2023/03/11 10:14:53;;;;;;;8.20;2.03;;;5.20;99.90;;;;;;5051983;28;20033;-89
2023/03/11 10:17:30;;;;;;;6.55;1.90;;;4.80;99.90;;;;;;5069597;28;20119;-89
2023/03/11 10:20:42;;;;;;;7.10;1.90;;;4.80;99.90;;;;;;5071940;28;20041;-89
2023/03/11 10:23:25;;;;;;;6.75;1.92;;;4.90;99.90;;;;;;5071151;28;20045;-89
2023/03/11 10:26:08;;;;;;;6.63;1.80;;;5.00;99.90;;;;;;5070238;28;20082;-89
2023/03/11 10:28:59;;;;;;;7.68;1.92;;;5.00;99.90;;;;;;5070570;28;20558;-88
2023/03/11 10:31:29;;;;;;;8.55;1.88;;;5.00;99.90;;;;;;5054162;28;20040;-88
2023/03/11 10:34:03;;;;;;;8.30;1.90;;;5.10;99.90;;;;;;5070863;28;20037;-87
2023/03/11 10:36:39;;;;;;;7.55;1.88;;;5.10;99.90;;;;;;5056849;28;20085;-87
2023/03/11 10:39:05;;;;;;;8.20;1.80;;;5.20;99.90;;;;;;5064796;28;20547;-88
2023/03/11 10:41:42;;;;;;;7.53;2.00;;;5.20;99.90;;;;;;5054103;28;20071;-88
2023/03/11 10:44:31;;;;;;;9.98;2.38;;;6.40;99.90;;;;;;5071150;28;20448;-87
2023/03/11 10:46:57;;;;;;;8.43;2.20;;;5.20;99.90;;;;;;5054048;28;20491;-88
2023/03/11 10:49:22;;;;;;;9.05;2.00;;;5.30;99.90;;;;;;5052533;28;20047;-87
2023/03/11 10:51:51;;;;;;;6.95;1.67;;;5.40;99.90;;;;;;5062197;28;20040;-87
2023/03/11 10:54:47;;;;;;;7.30;1.92;;;5.60;99.90;;;;;;5070566;28;20412;-88
2023/03/11 10:57:24;;;;;;;7.40;1.70;;;7.00;99.90;;;;;;5068261;28;20052;-87
2023/03/11 10:59:55;;;;;;;6.47;1.83;;;5.60;99.90;;;;;;5070124;28;20091;-87
2023/03/11 11:02:27;;;;;;;6.13;1.67;;;5.70;99.90;;;;;;5070410;28;20037;-87
2023/03/11 11:05:15;;;;;;;7.57;1.90;;;5.80;99.90;;;;;;5070687;28;20059;-88
2023/03/11 11:07:41;;;;;;;5.43;1.60;;;5.80;99.90;;;;;;5067526;28;20048;-87
2023/03/11 11:10:28;;;;;;;6.93;1.80;;;7.50;99.90;;;;;;5052467;28;20040;-87
2023/03/11 11:13:24;;;;;;;9.95;1.90;;;5.90;99.90;;;;;;5033781;28;20037;-87
2023/03/11 11:16:19;;;;;;;6.70;1.75;;;5.90;99.90;;;;;;5049740;28;20048;-87
2023/03/11 11:18:48;;;;;;;5.35;1.80;;;7.50;99.90;;;;;;5051296;28;20420;-88
2023/03/11 11:21:26;;;;;;;7.05;2.15;;;5.90;99.90;;;;;;5052258;28;20043;-87
2023/03/11 11:24:06;;;;;;;5.80;1.90;;;5.90;99.90;;;;;;5043298;28;20118;-87
2023/03/11 11:26:31;;;;;;;5.70;1.70;;;5.90;99.90;;;;;;5047298;28;20054;-87
2023/03/11 11:29:09;;;;;;;7.95;1.77;;;7.10;99.90;;;;;;5013410;28;20067;-87
2023/03/11 11:31:37;;;;;;;8.57;1.80;;;6.00;99.90;;;;;;5043474;28;20047;-86
2023/03/11 11:34:05;;;;;;;8.70;2.08;;;6.00;99.90;;;;;;5030230;28;20047;-87
2023/03/11 11:36:38;;;;;;;5.18;1.52;;;6.10;99.90;;;;;;5039219;28;20037;-87
2023/03/11 11:39:15;;;;;;;5.55;1.70;;;7.30;99.90;;;;;;5047199;28;20059;-88
2023/03/11 11:41:42;;;;;;;7.90;1.80;;;6.20;99.90;;;;;;5046443;28;20386;-88
2023/03/11 11:44:14;;;;;;;7.13;1.80;;;6.30;99.90;;;;;;5052194;28;20110;-87
2023/03/11 11:46:46;;;;;;;5.65;1.50;;;7.40;99.90;;;;;;5069394;28;20392;-88
2023/03/11 11:49:26;;;;;;;5.70;1.80;;;6.30;99.90;;;;;;5065525;28;20516;-87
2023/03/11 11:52:19;;;;;;;5.72;1.60;;;6.30;99.90;;;;;;5044503;28;20206;-86
2023/03/11 11:54:56;;;;;;;8.15;2.00;;;6.30;99.90;;;;;;5064038;28;20400;-86
2023/03/11 11:57:23;;;;;;;4.97;1.60;;;6.30;99.90;;;;;;5065937;28;20072;-87
2023/03/11 11:59:49;;;;;;;5.50;1.70;;;7.60;99.90;;;;;;5048722;28;20048;-86
2023/03/11 12:02:15;;;;;;;7.35;1.73;;;6.40;99.90;;;;;;5052241;28;20504;-88
2023/03/11 12:04:55;;;;;;;9.38;1.95;;;8.20;99.90;;;;;;5068433;28;20036;-87
2023/03/11 12:07:38;;;;;;;6.80;1.70;;;6.90;99.90;;;;;;5050515;28;20048;-86
2023/03/11 12:10:26;;;;;;;6.13;1.50;;;6.60;99.90;;;;;;5069033;28;20028;-87
2023/03/11 12:13:33;;;;;;;7.72;1.58;;;6.70;99.90;;;;;;5055730;28;20206;-87
2023/03/11 12:16:18;;;;;;;6.80;1.83;;;6.70;99.90;;;;;;4972315;28;20078;-87
2023/03/11 12:19:09;;;;;;;6.80;1.80;;;6.70;99.90;;;;;;5040787;28;20087;-87
2023/03/11 12:22:00;;;;;;;8.00;2.28;;;6.70;99.90;;;;;;5063812;28;20490;-87
2023/03/11 12:24:51;;;;;;;6.85;1.70;;;6.70;99.90;;;;;;5060179;28;20029;-87
2023/03/11 12:27:29;;;;;;;6.85;1.73;;;6.70;99.90;;;;;;5048928;28;20448;-86
2023/03/11 12:29:58;;;;;;;7.85;1.75;;;6.70;99.90;;;;;;5065565;28;20028;-86
2023/03/11 12:32:33;;;;;;;6.38;1.67;;;6.80;99.90;;;;;;5066003;28;20702;-87
2023/03/11 12:35:17;;;;;;;7.45;1.92;;;6.80;99.90;;;;;;5066731;28;20073;-86
2023/03/11 12:37:43;;;;;;;6.22;1.70;;;6.70;99.90;;;;;;5067987;28;20171;-87
2023/03/11 12:40:43;;;;;;;11.02;1.90;;;6.80;99.90;;;;;;5049459;28;20135;-87
2023/03/11 12:43:33;;;;;;;7.07;2.00;;;6.90;99.90;;;;;;5065224;28;20494;-87
2023/03/11 12:46:04;;;;;;;4.65;1.40;;;6.90;99.90;;;;;;5067159;28;20033;-87
2023/03/11 12:48:48;;;;;;;8.68;1.73;;;6.80;99.90;;;;;;5068163;28;20033;-87
2023/03/11 12:51:26;;;;;;;8.77;1.98;;;6.70;99.90;;;;;;5051006;28;20094;-87
2023/03/11 12:53:55;;;;;;;8.35;1.80;;;7.40;99.90;;;;;;5081325;28;20048;-87
2023/03/11 12:56:38;;;;;;;9.13;1.80;;;6.50;99.90;;;;;;5067596;28;20329;-87
2023/03/11 12:59:32;;;;;;;7.07;1.50;;;6.50;99.90;;;;;;5050380;28;20040;-87
2023/03/11 13:02:00;;;;;;;;;;;6.60;99.90;;;;;;5067459;28;20048;-86
2023/03/11 13:04:38;;;;;;;7.18;1.83;;;6.60;99.90;;;;;;5060181;28;20325;-87
2023/03/11 13:07:13;;;;;;;5.80;1.70;;;6.70;99.90;;;;;;5066781;28;20101;-86
2023/03/11 13:09:39;;;;;;;6.07;1.40;;;6.80;99.90;;;;;;5058597;28;20574;-87
2023/03/11 13:12:44;;;;;;;6.10;1.38;;;6.90;99.90;;;;;;5068883;28;20534;-87
2023/03/11 13:15:19;;;;;;;7.40;1.88;;;7.00;99.90;;;;;;5066094;28;20044;-87
2023/03/11 13:18:23;;;;;;;5.97;1.70;;;7.10;99.90;;;;;;5065436;28;20048;-87
2023/03/11 13:20:58;;;;;;;3.95;1.30;;;7.10;99.90;;;;;;5054970;28;20051;-87
2023/03/11 13:23:28;;;;;;;5.90;1.63;;;7.20;99.90;;;;;;5050599;28;20036;-88
2023/03/11 13:26:06;;;;;;;4.00;1.52;;;7.90;99.90;;;;;;5053274;28;20102;-88
2023/03/11 13:29:00;;;;;;;6.65;1.50;;;6.90;99.90;;;;;;5062606;28;20051;-87
2023/03/11 13:32:06;;;;;;;4.35;1.30;;;6.90;99.90;;;;;;5064374;28;20035;-87
2023/03/11 13:35:10;;;;;;;7.28;1.50;;;7.00;99.90;;;;;;4987081;28;20046;-88
2023/03/11 13:37:48;;;;;;;5.90;1.58;;;7.10;99.90;;;;;;5012501;28;20068;-86
2023/03/11 13:40:35;;;;;;;5.53;1.55;;;7.20;99.90;;;;;;5067270;28;20152;-88